createdAt,value
2023-03-08T00:00:43.078Z,9.07
2023-03-08T00:03:15.019Z,8.18
2023-03-08T00:05:43.732Z,8.85
2023-03-08T00:08:12.027Z,9.27
2023-03-08T00:10:41.179Z,8.82
2023-03-08T00:13:09.608Z,8.25
2023-03-08T00:15:38.335Z,9.55
2023-03-08T00:18:06.298Z,8.57
2023-03-08T00:20:34.857Z,8.85
2023-03-08T00:23:02.706Z,9.07
2023-03-08T00:25:31.094Z,8.77
2023-03-08T00:28:00.215Z,8.90
2023-03-08T00:30:34.692Z,9.13
2023-03-08T00:33:02.539Z,9.23
2023-03-08T00:35:32.664Z,9.23
2023-03-08T00:38:00.606Z,7.93
2023-03-08T00:40:28.532Z,8.90
2023-03-08T00:42:58.062Z,9.38
2023-03-08T00:45:27.481Z,9.45
2023-03-08T00:47:55.217Z,9.20
2023-03-08T00:50:23.243Z,9.20
2023-03-08T00:52:50.847Z,8.27
2023-03-08T00:55:18.458Z,9.10
2023-03-08T00:57:48.128Z,9.73
2023-03-08T01:00:17.384Z,9.70
2023-03-08T01:02:46.631Z,8.75
2023-03-08T01:05:15.013Z,10.27
2023-03-08T01:07:44.108Z,9.20
2023-03-08T01:10:13.477Z,8.98
2023-03-08T01:12:41.380Z,9.20
2023-03-08T01:15:09.879Z,9.65
2023-03-08T01:17:37.900Z,9.60
2023-03-08T01:20:08.489Z,8.95
2023-03-08T01:22:36.211Z,9.23
2023-03-08T01:25:04.182Z,9.43
2023-03-08T01:27:33.409Z,9.45
2023-03-08T01:30:01.384Z,9.40
2023-03-08T01:32:29.119Z,8.95
2023-03-08T01:35:01.960Z,8.70
2023-03-08T01:37:31.430Z,9.45
2023-03-08T01:39:59.622Z,8.85
2023-03-08T01:42:27.747Z,9.52
2023-03-08T01:44:57.680Z,9.43
2023-03-08T01:47:28.175Z,9.43
2023-03-08T01:50:28.176Z,8.52
2023-03-08T01:52:59.677Z,9.43
2023-03-08T01:55:27.663Z,8.82
2023-03-08T01:57:57.545Z,9.85
2023-03-08T02:00:26.954Z,9.48
2023-03-08T02:02:59.289Z,9.07
2023-03-08T02:05:27.902Z,9.02
2023-03-08T02:08:03.026Z,9.40
2023-03-08T02:10:36.597Z,9.23
2023-03-08T02:13:05.293Z,9.25
2023-03-08T02:15:34.681Z,9.50
2023-03-08T02:18:02.404Z,9.45
2023-03-08T02:20:33.392Z,9.18
2023-03-08T02:23:14.221Z,9.07
2023-03-08T02:25:43.586Z,9.38
2023-03-08T02:28:11.416Z,8.75
2023-03-08T02:30:39.438Z,8.85
2023-03-08T02:33:07.161Z,9.32
2023-03-08T02:35:38.555Z,10.10
2023-03-08T02:38:06.224Z,9.68
2023-03-08T02:40:35.811Z,9.38
2023-03-08T02:43:03.582Z,9.68
2023-03-08T02:45:32.309Z,9.45
2023-03-08T02:48:00.408Z,8.60
2023-03-08T02:50:28.233Z,9.43
2023-03-08T02:52:56.091Z,8.85
2023-03-08T02:55:23.971Z,9.85
2023-03-08T02:57:52.985Z,9.40
2023-03-08T03:00:22.508Z,9.25
2023-03-08T03:02:50.420Z,9.98
2023-03-08T03:05:18.441Z,9.20
2023-03-08T03:07:46.309Z,8.77
2023-03-08T03:10:18.673Z,8.55
2023-03-08T03:12:46.457Z,9.95
2023-03-08T03:15:19.781Z,9.60
2023-03-08T03:17:51.912Z,9.07
2023-03-08T03:20:19.758Z,8.77
2023-03-08T03:22:47.745Z,8.30
2023-03-08T03:25:16.514Z,8.65
2023-03-08T03:27:46.138Z,9.20
2023-03-08T03:30:14.542Z,9.57
2023-03-08T03:32:44.285Z,9.18
2023-03-08T03:35:13.687Z,9.65
2023-03-08T03:37:42.305Z,8.70
2023-03-08T03:40:14.029Z,9.20
2023-03-08T03:42:43.844Z,9.20
2023-03-08T03:45:14.632Z,9.00
2023-03-08T03:47:44.595Z,9.35
2023-03-08T03:50:12.973Z,8.75
2023-03-08T03:52:53.633Z,8.50
2023-03-08T03:55:21.380Z,9.95
2023-03-08T03:57:50.687Z,9.57
2023-03-08T04:00:19.853Z,9.27
2023-03-08T04:02:56.752Z,9.40
2023-03-08T04:05:26.942Z,9.27
2023-03-08T04:07:55.262Z,8.95
2023-03-08T04:10:27.846Z,8.52
2023-03-08T04:12:55.618Z,9.30
2023-03-08T04:15:23.826Z,9.23
2023-03-08T04:17:53.110Z,9.60
2023-03-08T04:20:24.654Z,9.00
2023-03-08T04:22:56.603Z,10.48
2023-03-08T04:25:31.378Z,8.85
2023-03-08T04:28:01.562Z,9.30
2023-03-08T04:30:31.337Z,9.25
2023-03-08T04:33:00.872Z,10.45
2023-03-08T04:35:37.706Z,9.32
2023-03-08T04:38:06.972Z,9.27
2023-03-08T04:40:54.846Z,9.07
2023-03-08T04:43:23.052Z,9.23
2023-03-08T04:45:51.227Z,9.40
2023-03-08T04:48:19.216Z,9.23
2023-03-08T04:50:55.292Z,9.63
2023-03-08T04:53:25.099Z,9.57
2023-03-08T04:55:53.472Z,9.25
2023-03-08T04:58:21.760Z,9.52
2023-03-08T05:00:50.292Z,9.15
2023-03-08T05:03:18.251Z,10.05
2023-03-08T05:05:47.565Z,9.80
2023-03-08T05:08:17.824Z,9.23
2023-03-08T05:10:49.142Z,9.25
2023-03-08T05:13:17.960Z,9.55
2023-03-08T05:15:46.553Z,9.25
2023-03-08T05:18:14.193Z,9.60
2023-03-08T05:20:41.908Z,9.45
2023-03-08T05:23:09.581Z,8.85
2023-03-08T05:25:45.063Z,8.68
2023-03-08T05:28:15.724Z,9.57
2023-03-08T05:30:44.689Z,10.32
2023-03-08T05:33:12.466Z,9.18
2023-03-08T05:35:41.575Z,9.82
2023-03-08T05:38:09.783Z,9.18
2023-03-08T05:40:39.125Z,10.02
2023-03-08T05:43:09.200Z,9.85
2023-03-08T05:45:37.968Z,9.65
2023-03-08T05:48:06.347Z,10.48
2023-03-08T05:50:39.080Z,10.95
2023-03-08T05:53:06.746Z,9.85
2023-03-08T05:55:35.806Z,10.27
2023-03-08T05:58:03.976Z,10.65
2023-03-08T06:00:35.285Z,11.15
2023-03-08T06:03:04.489Z,10.40
2023-03-08T06:05:36.967Z,10.98
2023-03-08T06:08:05.278Z,11.52
2023-03-08T06:10:34.983Z,11.07
2023-03-08T06:13:04.491Z,11.80
2023-03-08T06:15:34.070Z,11.50
2023-03-08T06:18:01.852Z,11.75
2023-03-08T06:20:31.502Z,23.75
2023-03-08T06:22:59.501Z,15.77
2023-03-08T06:25:27.456Z,11.85
2023-03-08T06:27:55.730Z,12.45
2023-03-08T06:30:40.243Z,12.48
2023-03-08T06:33:08.063Z,11.50
2023-03-08T06:35:36.660Z,11.48
2023-03-08T06:38:06.143Z,12.55
2023-03-08T06:40:35.960Z,11.73
2023-03-08T06:43:04.245Z,12.10
2023-03-08T06:45:35.096Z,11.83
2023-03-08T06:48:04.116Z,12.10
2023-03-08T06:50:33.798Z,12.13
2023-03-08T06:53:01.791Z,12.20
2023-03-08T06:55:45.193Z,12.93
2023-03-08T06:58:13.005Z,13.17
2023-03-08T07:00:41.895Z,78.30
2023-03-08T07:03:11.359Z,12.85
2023-03-08T07:05:39.426Z,12.38
2023-03-08T07:08:08.197Z,11.98
2023-03-08T07:10:36.654Z,13.25
2023-03-08T07:13:07.371Z,12.85
2023-03-08T07:15:35.858Z,12.88
2023-03-08T07:18:03.853Z,13.50
2023-03-08T07:20:34.727Z,12.18
2023-03-08T07:23:02.791Z,14.02
2023-03-08T07:25:31.542Z,14.52
2023-03-08T07:28:00.375Z,13.07
2023-03-08T07:30:28.564Z,13.00
2023-03-08T07:32:56.620Z,12.30
2023-03-08T07:35:24.354Z,12.73
2023-03-08T07:37:53.626Z,13.60
2023-03-08T07:40:21.840Z,13.73
2023-03-08T07:42:49.884Z,12.88
2023-03-08T07:45:39.408Z,12.73
2023-03-08T07:48:07.777Z,13.43
2023-03-08T07:50:35.635Z,12.20
2023-03-08T07:53:05.445Z,92.82
2023-03-08T07:55:34.962Z,20.98
2023-03-08T07:58:02.826Z,12.95
2023-03-08T08:00:31.955Z,13.77
2023-03-08T08:03:01.920Z,13.17
2023-03-08T08:05:30.036Z,13.87
2023-03-08T08:07:58.020Z,13.50
2023-03-08T08:10:27.104Z,14.73
2023-03-08T08:12:55.061Z,12.87
2023-03-08T08:15:25.222Z,13.73
2023-03-08T08:17:53.760Z,13.90
2023-03-08T08:20:21.769Z,14.82
2023-03-08T08:22:53.199Z,14.70
2023-03-08T08:25:22.194Z,14.47
2023-03-08T08:27:52.749Z,14.77
2023-03-08T08:30:20.919Z,15.70
2023-03-08T08:32:49.114Z,14.97
2023-03-08T08:35:17.205Z,15.00
2023-03-08T08:37:44.963Z,15.47
2023-03-08T08:40:13.633Z,15.27
2023-03-08T08:42:41.817Z,15.07
2023-03-08T08:45:12.212Z,15.07
2023-03-08T08:47:40.118Z,15.30
2023-03-08T08:50:08.644Z,17.80
2023-03-08T08:52:36.675Z,15.53
2023-03-08T08:55:04.826Z,15.70
2023-03-08T08:57:33.408Z,17.53
2023-03-08T09:00:01.348Z,15.27
2023-03-08T09:02:30.978Z,16.77
2023-03-08T09:04:58.983Z,16.23
2023-03-08T09:07:26.837Z,16.20
2023-03-08T09:09:55.662Z,17.07
2023-03-08T09:12:23.428Z,15.97
2023-03-08T09:14:51.352Z,17.90
2023-03-08T09:17:19.225Z,18.30
2023-03-08T09:19:48.444Z,20.07
2023-03-08T09:22:16.233Z,20.03
2023-03-08T09:24:45.822Z,21.50
2023-03-08T09:27:13.583Z,20.40
2023-03-08T09:29:41.468Z,22.70
2023-03-08T09:32:09.449Z,18.57
2023-03-08T09:34:37.453Z,20.83
2023-03-08T09:37:08.206Z,20.80
2023-03-08T09:39:36.148Z,21.70
2023-03-08T09:42:05.398Z,20.90
2023-03-08T09:44:54.215Z,21.70
2023-03-08T09:47:40.584Z,19.48
2023-03-08T09:50:22.100Z,19.93
2023-03-08T09:52:57.170Z,18.47
2023-03-08T09:55:30.514Z,19.30
2023-03-08T09:58:03.003Z,17.97
2023-03-08T10:00:34.211Z,18.20
2023-03-08T10:03:29.569Z,19.37
2023-03-08T10:06:05.284Z,18.90
2023-03-08T10:08:39.672Z,17.50
2023-03-08T10:11:17.504Z,18.83
2023-03-08T10:13:50.452Z,16.63
2023-03-08T10:16:24.722Z,18.23
2023-03-08T10:18:56.065Z,18.07
2023-03-08T10:21:25.725Z,17.90
2023-03-08T10:24:00.169Z,17.07
2023-03-08T10:26:28.901Z,17.07
2023-03-08T10:28:56.731Z,17.00
2023-03-08T10:31:27.291Z,16.63
2023-03-08T10:34:02.145Z,16.20
2023-03-08T10:36:30.201Z,15.60
2023-03-08T10:39:05.012Z,15.90
2023-03-08T10:41:38.140Z,15.87
2023-03-08T10:44:05.884Z,15.30
2023-03-08T10:46:34.370Z,15.70
2023-03-08T10:49:10.122Z,16.80
2023-03-08T10:51:37.945Z,16.57
2023-03-08T10:54:11.801Z,15.97
2023-03-08T10:56:45.035Z,16.97
2023-03-08T10:59:21.267Z,16.67
2023-03-08T11:01:51.257Z,16.20
2023-03-08T11:04:21.439Z,16.00
2023-03-08T11:06:49.732Z,15.73
2023-03-08T11:09:25.773Z,16.70
2023-03-08T11:11:53.938Z,16.20
2023-03-08T11:14:22.042Z,17.30
2023-03-08T11:16:56.238Z,15.90
2023-03-08T11:19:45.819Z,16.97
2023-03-08T11:22:24.787Z,16.70
2023-03-08T11:25:15.404Z,16.95
2023-03-08T11:27:59.150Z,16.57
2023-03-08T11:30:37.061Z,16.73
2023-03-08T11:33:46.618Z,16.55
2023-03-08T11:36:22.246Z,17.13
2023-03-08T11:38:57.949Z,16.95
2023-03-08T11:41:38.836Z,15.20
2023-03-08T11:44:27.841Z,16.67
2023-03-08T11:47:11.511Z,17.40
2023-03-08T11:49:54.681Z,18.90
2023-03-08T11:52:33.496Z,17.53
2023-03-08T11:55:20.579Z,17.02
2023-03-08T11:57:57.729Z,17.60
2023-03-08T12:00:30.983Z,18.38
2023-03-08T12:03:04.588Z,19.60
2023-03-08T12:05:36.497Z,18.75
2023-03-08T12:08:12.935Z,24.65
2023-03-08T12:10:48.157Z,19.05
2023-03-08T12:13:22.002Z,18.48
2023-03-08T12:15:55.107Z,18.17
2023-03-08T12:18:29.691Z,19.10
2023-03-08T12:21:07.570Z,17.38
2023-03-08T12:23:40.772Z,17.60
2023-03-08T12:26:14.950Z,18.05
2023-03-08T12:28:49.399Z,16.95
2023-03-08T12:31:27.907Z,16.67
2023-03-08T12:33:57.869Z,17.25
2023-03-08T12:36:38.514Z,16.98
2023-03-08T12:39:09.519Z,16.60
2023-03-08T12:41:37.917Z,15.88
2023-03-08T12:44:23.057Z,16.73
2023-03-08T12:47:02.960Z,16.38
2023-03-08T12:49:35.420Z,15.50
2023-03-08T12:52:06.270Z,16.00
2023-03-08T12:54:36.906Z,16.02
2023-03-08T12:57:17.100Z,15.27
2023-03-08T12:59:46.957Z,14.45
2023-03-08T13:02:34.306Z,13.10
2023-03-08T13:05:05.212Z,13.63
2023-03-08T13:07:39.386Z,13.65
2023-03-08T13:10:19.400Z,13.20
2023-03-08T13:13:35.072Z,12.25
2023-03-08T13:16:19.272Z,11.68
2023-03-08T13:18:49.282Z,11.35
2023-03-08T13:21:30.165Z,11.35
2023-03-08T13:24:03.789Z,9.52
2023-03-08T13:26:57.597Z,9.45
2023-03-08T13:29:31.617Z,9.45
2023-03-08T13:32:06.907Z,9.30
2023-03-08T13:34:36.205Z,6.75
2023-03-08T13:37:04.248Z,6.05
2023-03-08T13:39:34.572Z,4.07
2023-03-08T13:42:10.464Z,3.90
2023-03-08T13:44:38.590Z,3.53
2023-03-08T13:47:20.604Z,3.50
2023-03-08T13:49:51.873Z,4.20
2023-03-08T13:52:23.397Z,3.10
2023-03-08T13:54:54.006Z,3.20
2023-03-08T13:57:24.802Z,3.05
2023-03-08T13:59:54.704Z,2.80
2023-03-08T14:02:26.600Z,2.90
2023-03-08T14:04:54.847Z,2.97
2023-03-08T14:07:25.544Z,2.70
2023-03-08T14:09:53.412Z,1.85
2023-03-08T14:12:25.456Z,2.10
2023-03-08T14:14:57.193Z,1.83
2023-03-08T14:17:29.089Z,1.60
2023-03-08T14:19:58.877Z,1.73
2023-03-08T14:22:38.773Z,1.33
2023-03-08T14:25:21.237Z,1.17
2023-03-08T14:27:49.096Z,1.48
2023-03-08T14:30:19.346Z,1.13
2023-03-08T14:33:02.061Z,1.38
2023-03-08T14:35:32.164Z,1.60
2023-03-08T14:38:00.116Z,1.27
2023-03-08T14:40:31.298Z,1.00
2023-03-08T14:43:02.219Z,1.38
2023-03-08T14:45:35.683Z,1.80
2023-03-08T14:48:24.386Z,1.35
2023-03-08T14:50:55.223Z,1.50
2023-03-08T14:53:32.814Z,1.30
2023-03-08T14:56:03.600Z,1.52
2023-03-08T14:58:34.273Z,1.10
2023-03-08T15:01:03.524Z,1.20
2023-03-08T15:03:34.882Z,1.08
2023-03-08T15:06:08.924Z,1.20
2023-03-08T15:08:37.746Z,1.27
2023-03-08T15:11:07.674Z,1.10
2023-03-08T15:13:40.542Z,1.25
2023-03-08T15:16:14.744Z,0.98
2023-03-08T15:18:49.340Z,1.13
2023-03-08T15:21:23.256Z,1.60
2023-03-08T15:23:52.897Z,1.20
2023-03-08T15:26:26.676Z,1.30
2023-03-08T15:28:55.576Z,1.50
2023-03-08T15:31:25.022Z,1.30
2023-03-08T15:33:56.037Z,1.17
2023-03-08T15:36:28.210Z,1.42
2023-03-08T15:38:56.897Z,1.40
2023-03-08T15:41:28.399Z,1.42
2023-03-08T15:43:56.753Z,1.27
2023-03-08T15:46:28.853Z,1.63
2023-03-08T15:49:10.894Z,1.70
2023-03-08T15:51:45.737Z,1.92
2023-03-08T15:54:14.477Z,3.50
2023-03-08T15:56:42.457Z,2.08
2023-03-08T15:59:11.226Z,1.80
2023-03-08T16:01:41.889Z,2.78
2023-03-08T16:04:12.812Z,4.25
2023-03-08T16:06:43.886Z,3.10
2023-03-08T16:09:12.436Z,2.15
2023-03-08T16:11:41.873Z,2.35
2023-03-08T16:14:12.731Z,2.60
2023-03-08T16:16:45.505Z,2.13
2023-03-08T16:19:16.537Z,2.03
2023-03-08T16:21:47.862Z,2.03
2023-03-08T16:24:18.663Z,2.00
2023-03-08T16:26:46.775Z,1.63
2023-03-08T16:29:14.935Z,2.10
2023-03-08T16:31:43.742Z,1.83
2023-03-08T16:34:13.394Z,1.27
2023-03-08T16:36:43.078Z,1.75
2023-03-08T16:39:11.873Z,1.30
2023-03-08T16:41:42.781Z,1.67
2023-03-08T16:44:21.585Z,1.42
2023-03-08T16:46:50.886Z,1.67
2023-03-08T16:49:23.274Z,1.50
2023-03-08T16:51:53.072Z,1.40
2023-03-08T16:54:21.255Z,1.50
2023-03-08T16:56:50.182Z,1.40
2023-03-08T16:59:19.151Z,1.45
2023-03-08T17:01:50.016Z,1.60
2023-03-08T17:04:20.398Z,1.20
2023-03-08T17:06:51.765Z,1.48
2023-03-08T17:09:21.994Z,1.40
2023-03-08T17:11:50.440Z,1.35
2023-03-08T17:14:18.840Z,1.73
2023-03-08T17:16:47.126Z,1.95
2023-03-08T17:19:15.719Z,1.55
2023-03-08T17:21:46.091Z,1.45
2023-03-08T17:24:15.438Z,1.50
2023-03-08T17:26:47.892Z,1.30
2023-03-08T17:29:17.404Z,1.83
2023-03-08T17:31:46.629Z,1.55
2023-03-08T17:34:15.270Z,1.83
2023-03-08T17:36:47.640Z,1.50
2023-03-08T17:39:15.967Z,1.20
2023-03-08T17:41:46.183Z,1.20
2023-03-08T17:44:14.548Z,2.00
2023-03-08T17:46:42.892Z,1.48
2023-03-08T17:49:14.558Z,1.30
2023-03-08T17:51:42.964Z,1.25
2023-03-08T17:54:11.822Z,1.52
2023-03-08T17:56:41.197Z,2.03
2023-03-08T17:59:14.866Z,1.20
2023-03-08T18:01:44.034Z,1.10
2023-03-08T18:04:12.461Z,1.52
2023-03-08T18:06:43.613Z,1.40
2023-03-08T18:09:14.521Z,1.77
2023-03-08T18:11:43.346Z,1.60
2023-03-08T18:14:13.981Z,1.80
2023-03-08T18:16:45.004Z,1.98
2023-03-08T18:19:13.242Z,1.75
2023-03-08T18:21:54.992Z,1.70
2023-03-08T18:24:22.784Z,1.40
2023-03-08T18:26:51.469Z,1.40
2023-03-08T18:29:21.109Z,1.52
2023-03-08T18:31:49.012Z,8.15
2023-03-08T18:34:16.776Z,5.50
2023-03-08T18:36:44.442Z,2.63
2023-03-08T18:39:14.294Z,2.22
2023-03-08T18:41:42.490Z,2.33
2023-03-08T18:44:12.857Z,2.42
2023-03-08T18:46:42.133Z,2.55
2023-03-08T18:49:12.845Z,2.33
2023-03-08T18:51:42.571Z,2.50
2023-03-08T18:54:13.357Z,2.83
2023-03-08T18:56:41.125Z,2.67
2023-03-08T18:59:09.132Z,2.40
2023-03-08T19:01:38.647Z,2.40
2023-03-08T19:04:08.064Z,3.75
2023-03-08T19:06:37.332Z,4.75
2023-03-08T19:09:10.086Z,4.55
2023-03-08T19:11:46.672Z,4.10
2023-03-08T19:14:17.498Z,5.03
2023-03-08T19:16:46.579Z,3.17
2023-03-08T19:19:17.938Z,2.90
2023-03-08T19:21:48.379Z,2.60
2023-03-08T19:24:18.044Z,3.42
2023-03-08T19:26:51.324Z,2.67
2023-03-08T19:29:21.128Z,2.65
2023-03-08T19:31:52.021Z,2.60
2023-03-08T19:34:22.894Z,2.10
2023-03-08T19:36:52.914Z,1.40
2023-03-08T19:39:23.438Z,1.70
2023-03-08T19:41:53.546Z,2.45
2023-03-08T19:44:22.448Z,2.75
2023-03-08T19:46:51.137Z,2.63
2023-03-08T19:49:22.974Z,1.52
2023-03-08T19:51:52.285Z,1.30
2023-03-08T19:54:21.191Z,3.17
2023-03-08T19:56:49.293Z,2.30
2023-03-08T19:59:18.229Z,1.77
2023-03-08T20:01:46.804Z,1.27
2023-03-08T20:04:14.862Z,1.30
2023-03-08T20:06:47.033Z,1.20
2023-03-08T20:09:18.254Z,0.80
2023-03-08T20:11:47.984Z,1.05
2023-03-08T20:14:16.089Z,0.98
2023-03-08T20:16:45.004Z,0.82
2023-03-08T20:19:13.376Z,1.30
2023-03-08T20:21:45.331Z,1.25
2023-03-08T20:24:18.015Z,1.30
2023-03-08T20:26:47.954Z,2.15
2023-03-08T20:29:17.339Z,1.30
2023-03-08T20:31:50.744Z,1.48
2023-03-08T20:34:18.892Z,1.40
2023-03-08T20:36:51.416Z,2.88
2023-03-08T20:39:21.437Z,3.22
2023-03-08T20:41:49.552Z,3.40
2023-03-08T20:44:17.611Z,3.53
2023-03-08T20:46:46.302Z,3.25
2023-03-08T20:49:16.818Z,3.92
2023-03-08T20:51:47.721Z,3.10
2023-03-08T20:54:17.828Z,3.67
2023-03-08T20:56:46.576Z,4.55
2023-03-08T20:59:16.534Z,3.45
2023-03-08T21:01:45.074Z,3.15
2023-03-08T21:04:13.364Z,3.08
2023-03-08T21:06:41.873Z,2.88
2023-03-08T21:09:10.349Z,2.97
2023-03-08T21:11:40.457Z,2.97
2023-03-08T21:14:09.147Z,2.88
2023-03-08T21:16:37.356Z,2.88
2023-03-08T21:19:06.794Z,2.65
2023-03-08T21:21:37.663Z,2.60
2023-03-08T21:24:08.203Z,2.40
2023-03-08T21:26:39.457Z,2.50
2023-03-08T21:29:13.377Z,2.33
2023-03-08T21:31:43.558Z,2.50
2023-03-08T21:34:14.087Z,2.20
2023-03-08T21:36:42.088Z,2.92
2023-03-08T21:39:11.731Z,2.90
2023-03-08T21:41:41.896Z,2.58
2023-03-08T21:44:14.549Z,3.40
2023-03-08T21:46:43.182Z,3.72
2023-03-08T21:49:17.252Z,3.17
2023-03-08T21:51:45.296Z,2.10
2023-03-08T21:54:13.311Z,2.72
2023-03-08T21:56:42.045Z,3.47
2023-03-08T21:59:12.956Z,3.88
2023-03-08T22:01:43.021Z,4.60
2023-03-08T22:04:11.019Z,4.85
2023-03-08T22:06:40.755Z,4.80
2023-03-08T22:09:09.991Z,24.17
2023-03-08T22:11:42.733Z,10.65
2023-03-08T22:14:12.989Z,5.32
2023-03-08T22:16:40.879Z,4.88
2023-03-08T22:19:08.656Z,4.75
2023-03-08T22:21:37.262Z,4.88
2023-03-08T22:24:05.453Z,4.95
2023-03-08T22:26:34.119Z,5.03
2023-03-08T22:29:02.115Z,4.22
2023-03-08T22:31:31.616Z,4.40
2023-03-08T22:34:00.569Z,4.05
2023-03-08T22:36:28.506Z,4.78
2023-03-08T22:38:56.384Z,5.15
2023-03-08T22:41:27.443Z,4.88
2023-03-08T22:43:56.079Z,5.20
2023-03-08T22:46:26.179Z,4.65
2023-03-08T22:48:57.563Z,4.00
2023-03-08T22:51:27.686Z,4.20
2023-03-08T22:53:56.226Z,4.25
2023-03-08T22:56:26.165Z,4.25
2023-03-08T22:58:54.381Z,3.85
2023-03-08T23:01:24.708Z,3.33
2023-03-08T23:03:57.436Z,3.30
2023-03-08T23:06:28.007Z,2.67
2023-03-08T23:08:56.280Z,2.83
2023-03-08T23:11:24.270Z,2.17
2023-03-08T23:13:52.620Z,1.92
2023-03-08T23:16:20.500Z,1.55
2023-03-08T23:18:50.139Z,1.58
2023-03-08T23:21:21.861Z,2.55
2023-03-08T23:23:50.074Z,1.75
2023-03-08T23:26:20.981Z,2.10
2023-03-08T23:28:49.016Z,2.15
2023-03-08T23:31:18.530Z,2.13
2023-03-08T23:33:47.024Z,2.08
2023-03-08T23:36:17.592Z,1.60
2023-03-08T23:38:46.658Z,1.80
2023-03-08T23:41:15.150Z,1.52
2023-03-08T23:43:43.727Z,1.55
2023-03-08T23:46:13.319Z,1.65
2023-03-08T23:48:41.489Z,1.83
2023-03-08T23:51:11.838Z,1.83
2023-03-08T23:53:40.124Z,1.77
2023-03-08T23:56:18.356Z,2.05
2023-03-08T23:58:48.391Z,1.63
